메인 페이지
METAR-TAF:

METAR-TAF

공항 :

San Salvador de Jujuy, 아르헨티나

위도: 24-23S, 경도: 065-05W, 고도: 921m

현재 날씨관측

예보는 19분 전, 15:00시(UTC)에 발표되었습니다.
7kt
온도 17°C
습도 72%
기압 1016 hPa
시정 10km 이상
고도 3500ft 상공 구름 많음

METAR: SASJ 201500Z 08007KT 9999 BKN035 17/12 Q1016

시각: 12:19 (15:19 UTC)

예보

예보는 4 시간 19분 전, 11:00시(UTC)에 발표되었습니다.
예보 대상 시간: 20일 12시부터 21일 12시까지 (UTC)
서북서5kt
시정 10km 이상
고도 2000ft 상공 구름 많음
전환 중
20일 14시부터 20일 16시까지 (UTC)
북북동8kt
고도 3000ft 상공 구름 보통
전환 중
21일 01시부터 21일 03시까지 (UTC)
서남서5kt
시정: 8000m
고도 400ft 상공 구름 보통
확률 40%
21일 07시부터 21일 11시까지 (UTC)
시정: 0800m
고도 300ft 상공 구름 많음
안개,

TAF: SASJ 201100Z 2012/2112 29005KT 9999 BKN020 TX23/2018Z TN08/2110Z BECMG 2014/2016 03008KT SCT030 BECMG 2101/2103 25005KT 8000 SCT004 PROB40 2107/2111 0800 FG BKN003

4,000개 이상의 공항 관측 자료 및 예보 (METAR 및 TAF 보고).

지도상에서 검색 가능한 기상관측소가 노란 점과 빨간 점으로 표시되어 있습니다.

기상관측소 명을 보려면 표시 위로 마우스를 이동하세요.

날씨 관측과 예보를 보려면 클릭하세요.

지도 변경 : 확대하려면 엑스 표시가 있는 녹색 버튼, 축소하려면 빼기 표시가 있는 녹색 버튼, 다음 페이지의 지도를 보려면 녹색 화살표를 클릭하세요.


METAR-TAF: